Terminal Aerodrome Forecast
Issued by NWS Springfield, MO

Home | Current Version | Previous Version | Text Only | Print | Product List | Glossary On
Versions: 1 2 3 4 5 6 7 8 9 10 11 12 13 14 15 16 17 18 19
000
FTUS43 KSGF 021100
TAFSGF
TAF
KSGF 021120Z 0212/0312 15011KT P6SM BKN030 OVC040
     FM021800 35010KT P6SM BKN050 PROB30 0221/0224 4SM TSRA BR
      BKN030CB
     FM030100 VRB04KT P6SM BKN080
      TEMPO 0309/0312 4SM BR=

USA.gov is the U.S. government's official web portal to all federal, state and local government web resources and services.